Kandalaksha, Russia
Current Conditions -  °F | °C
As of 1:50 PM on Wednesday 26 Nov 2014 (Local Time) from EFKS Reporting Station
Overcast Overcast  
Wind Chill: 26°   Ceiling: 400
Heat Index: 32°   Visibility: 6mi
Dew Point: 32°   Wind: 7mph
Humidity: 100%   Direction: 260°W
Pressure: 30.06"   Gusts: NA
Location:  67.16°N, 32.41°E
Report Text: EFKS 261050Z AUTO 26006KT 220V300 9999 OVC004 M00/M00 Q1018
Loading
Personal Weather Stations






























Interactive Weather Map New forecast layout! Learn more

10-Day Weather Forecast

Advertisements
Track Severe Weather on mobile